createdAt,value
2022-12-15T00:02:25.351Z,97286.47
2022-12-15T00:05:10.298Z,97292.28
2022-12-15T00:07:55.532Z,97297.91
2022-12-15T00:10:40.709Z,97287.72
2022-12-15T00:13:31.352Z,97270.97
2022-12-15T00:16:17.201Z,97275.94
2022-12-15T00:19:02.798Z,97270.41
2022-12-15T00:21:48.503Z,97257.81
2022-12-15T00:24:33.675Z,97270.75
2022-12-15T00:27:19.348Z,97276.56
2022-12-15T00:30:04.889Z,97281.81
2022-12-15T00:32:50.119Z,97273.53
2022-12-15T00:35:35.421Z,97275.50
2022-12-15T00:38:29.006Z,97281.00
2022-12-15T00:40:59.330Z,97291.31
2022-12-15T00:43:28.549Z,97282.53
2022-12-15T00:46:14.089Z,97297.91
2022-12-15T00:48:41.281Z,97305.47
2022-12-15T00:51:08.435Z,97297.25
2022-12-15T00:53:53.915Z,97301.63
2022-12-15T00:56:39.270Z,97293.19
2022-12-15T00:59:24.639Z,97297.44
2022-12-15T01:02:09.977Z,97310.75
2022-12-15T01:04:55.239Z,97312.66
2022-12-15T01:07:40.411Z,97312.81
2022-12-15T01:10:26.243Z,97316.25
2022-12-15T01:13:11.871Z,97325.97
2022-12-15T01:15:57.626Z,97324.66
2022-12-15T01:18:42.931Z,97324.97
2022-12-15T01:21:11.215Z,97313.31
2022-12-15T01:23:38.959Z,97298.28
2022-12-15T01:26:06.790Z,97305.47
2022-12-15T01:28:33.353Z,97296.88
2022-12-15T01:31:00.191Z,97288.25
2022-12-15T01:33:26.847Z,97302.38
2022-12-15T01:35:57.386Z,97320.00
2022-12-15T01:38:24.495Z,97317.56
2022-12-15T01:40:58.769Z,97311.34
2022-12-15T01:43:29.518Z,97327.50
2022-12-15T01:46:06.857Z,97334.16
2022-12-15T01:48:38.123Z,97337.59
2022-12-15T01:51:19.422Z,97340.94
2022-12-15T01:54:26.525Z,97329.09
2022-12-15T01:56:58.527Z,97327.06
2022-12-15T01:59:41.023Z,97338.81
2022-12-15T02:02:08.339Z,97337.47
2022-12-15T02:04:35.346Z,97328.56
2022-12-15T02:07:04.125Z,97318.59
2022-12-15T02:09:31.185Z,97314.75
2022-12-15T02:12:07.117Z,97313.06
2022-12-15T02:14:58.292Z,97298.63
2022-12-15T02:17:27.818Z,97292.81
2022-12-15T02:20:09.344Z,97288.63
2022-12-15T02:22:59.168Z,97294.97
2022-12-15T02:25:34.875Z,97306.94
2022-12-15T02:28:08.408Z,97309.00
2022-12-15T02:31:14.450Z,97306.25
2022-12-15T02:33:51.952Z,97306.41
2022-12-15T02:36:28.444Z,97317.09
2022-12-15T02:38:55.426Z,97323.59
2022-12-15T02:41:46.185Z,97324.44
2022-12-15T02:44:31.731Z,97331.38
2022-12-15T02:47:19.772Z,97328.06
2022-12-15T02:50:11.172Z,97333.22
2022-12-15T02:52:40.861Z,97322.34
2022-12-15T02:55:17.114Z,97326.69
2022-12-15T02:58:06.845Z,97329.16
2022-12-15T03:00:40.878Z,97346.06
2022-12-15T03:03:08.385Z,97342.69
2022-12-15T03:05:35.614Z,97346.78
2022-12-15T03:08:02.361Z,97345.16
2022-12-15T03:10:29.128Z,97350.16
2022-12-15T03:12:55.910Z,97357.84
2022-12-15T03:15:22.603Z,97363.00
2022-12-15T03:17:49.370Z,97360.31
2022-12-15T03:20:16.051Z,97359.44
2022-12-15T03:22:42.782Z,97365.94
2022-12-15T03:25:09.526Z,97370.13
2022-12-15T03:27:36.362Z,97376.84
2022-12-15T03:30:03.737Z,97375.28
2022-12-15T03:32:30.515Z,97374.06
2022-12-15T03:34:57.487Z,97367.63
2022-12-15T03:37:24.147Z,97369.13
2022-12-15T03:39:50.855Z,97381.50
2022-12-15T03:42:37.610Z,97381.50
2022-12-15T03:45:04.866Z,97378.41
2022-12-15T03:47:32.039Z,97379.38
2022-12-15T03:49:58.664Z,97366.16
2022-12-15T03:52:25.594Z,97378.44
2022-12-15T03:54:52.474Z,97382.66
2022-12-15T03:57:19.099Z,97389.31
2022-12-15T03:59:45.771Z,97379.50
2022-12-15T04:02:12.661Z,97387.13
2022-12-15T04:04:39.703Z,97383.63
2022-12-15T04:07:06.398Z,97393.78
2022-12-15T04:09:33.063Z,97395.19
2022-12-15T04:11:59.655Z,97372.03
2022-12-15T04:14:26.339Z,97391.41
2022-12-15T04:16:53.067Z,97386.25
2022-12-15T04:19:38.446Z,97389.47
2022-12-15T04:22:05.105Z,97384.97
2022-12-15T04:24:50.385Z,97395.06
2022-12-15T04:27:35.538Z,97397.72
2022-12-15T04:30:20.839Z,97394.81
2022-12-15T04:33:06.097Z,97393.38
2022-12-15T04:35:52.890Z,97380.78
2022-12-15T04:38:49.886Z,97377.13
2022-12-15T04:41:37.857Z,97391.25
2022-12-15T04:44:23.790Z,97397.97
2022-12-15T04:47:09.054Z,97403.34
2022-12-15T04:49:54.230Z,97400.88
2022-12-15T04:52:39.416Z,97402.28
2022-12-15T04:55:25.451Z,97412.19
2022-12-15T04:58:10.688Z,97398.28
2022-12-15T05:00:55.976Z,97406.72
2022-12-15T05:03:41.046Z,97403.97
2022-12-15T05:06:26.702Z,97412.28
2022-12-15T05:09:11.949Z,97410.03
2022-12-15T05:11:57.323Z,97417.81
2022-12-15T05:14:42.570Z,97416.81
2022-12-15T05:17:28.056Z,97398.84
2022-12-15T05:20:13.423Z,97399.03
2022-12-15T05:22:59.562Z,97397.28
2022-12-15T05:25:44.601Z,97399.66
2022-12-15T05:28:30.053Z,97402.22
2022-12-15T05:31:15.501Z,97398.78
2022-12-15T05:33:42.274Z,97395.63
2022-12-15T05:36:09.193Z,97397.47
2022-12-15T05:38:35.964Z,97408.28
2022-12-15T05:41:02.555Z,97404.78
2022-12-15T05:43:29.831Z,97418.00
2022-12-15T05:45:56.690Z,97409.84
2022-12-15T05:48:23.398Z,97410.59
2022-12-15T05:50:50.602Z,97409.56
2022-12-15T05:53:17.384Z,97418.81
2022-12-15T05:55:44.158Z,97418.34
2022-12-15T05:58:10.751Z,97414.06
2022-12-15T06:00:37.487Z,97419.94
2022-12-15T06:03:04.528Z,97423.38
2022-12-15T06:05:31.147Z,97422.63
2022-12-15T06:07:59.951Z,97426.69
2022-12-15T06:10:26.696Z,97426.84
2022-12-15T06:12:54.205Z,97424.06
2022-12-15T06:15:20.807Z,97427.41
2022-12-15T06:17:49.776Z,97387.66
2022-12-15T06:20:16.583Z,97433.16
2022-12-15T06:22:49.448Z,97435.09
2022-12-15T06:25:17.714Z,97438.22
2022-12-15T06:27:44.354Z,97444.91
2022-12-15T06:30:11.248Z,97450.22
2022-12-15T06:32:37.796Z,97453.59
2022-12-15T06:35:04.805Z,97470.16
2022-12-15T06:37:31.335Z,97470.84
2022-12-15T06:39:57.924Z,97466.78
2022-12-15T06:42:24.576Z,97475.38
2022-12-15T06:44:51.285Z,97463.75
2022-12-15T06:47:17.878Z,97449.63
2022-12-15T06:49:44.618Z,97453.50
2022-12-15T06:52:11.215Z,97453.22
2022-12-15T06:54:38.660Z,97456.47
2022-12-15T06:57:05.745Z,97464.25
2022-12-15T06:59:32.361Z,97467.59
2022-12-15T07:02:00.541Z,97471.06
2022-12-15T07:04:27.512Z,97471.94
2022-12-15T07:06:54.306Z,97470.97
2022-12-15T07:09:21.017Z,97483.56
2022-12-15T07:11:50.346Z,97504.31
2022-12-15T07:14:17.095Z,97510.09
2022-12-15T07:16:43.974Z,97514.25
2022-12-15T07:19:12.560Z,97515.59
2022-12-15T07:21:39.198Z,97525.84
2022-12-15T07:24:06.492Z,97533.09
2022-12-15T07:26:34.112Z,97531.56
2022-12-15T07:29:00.779Z,97538.44
2022-12-15T07:31:27.471Z,97533.28
2022-12-15T07:33:54.878Z,97541.50
2022-12-15T07:36:22.094Z,97545.63
2022-12-15T07:38:49.926Z,97561.22
2022-12-15T07:41:18.559Z,97568.03
2022-12-15T07:43:46.593Z,97561.56
2022-12-15T07:46:14.166Z,97553.94
2022-12-15T07:48:41.104Z,97565.41
2022-12-15T07:51:17.113Z,97565.28
2022-12-15T07:53:46.833Z,97573.66
2022-12-15T07:56:13.985Z,97568.50
2022-12-15T07:58:40.998Z,97569.31
2022-12-15T08:01:10.520Z,97566.88
2022-12-15T08:03:38.823Z,97566.94
2022-12-15T08:06:11.707Z,97569.47
2022-12-15T08:08:39.576Z,97570.84
2022-12-15T08:11:07.547Z,97539.34
2022-12-15T08:16:22.216Z,97549.75
2022-12-15T08:18:49.138Z,97568.81
2022-12-15T08:21:16.208Z,97550.03
2022-12-15T08:23:42.822Z,97554.13
2022-12-15T08:26:12.273Z,97550.84
2022-12-15T08:28:40.169Z,97552.44
2022-12-15T08:31:18.821Z,97556.53
2022-12-15T08:33:46.503Z,97546.28
2022-12-15T08:36:14.901Z,97546.47
2022-12-15T08:38:43.452Z,97549.78
2022-12-15T08:41:16.891Z,97546.13
2022-12-15T08:43:48.695Z,97548.47
2022-12-15T08:46:17.999Z,97541.81
2022-12-15T08:48:45.147Z,97541.84
2022-12-15T08:51:12.072Z,97543.66
2022-12-15T08:53:38.825Z,97532.59
2022-12-15T08:56:17.290Z,97543.25
2022-12-15T08:58:45.561Z,97522.09
2022-12-15T09:01:22.896Z,97532.34
2022-12-15T09:03:52.245Z,97550.63
2022-12-15T09:06:22.419Z,97552.22
2022-12-15T09:08:50.496Z,97552.19
2022-12-15T09:11:17.624Z,97544.75
2022-12-15T09:13:44.614Z,97558.16
2022-12-15T09:16:14.103Z,97565.56
2022-12-15T09:18:52.722Z,97553.69
2022-12-15T09:21:25.091Z,97543.47
2022-12-15T09:23:54.760Z,97557.06
2022-12-15T09:26:23.131Z,97551.16
2022-12-15T09:28:51.880Z,97543.50
2022-12-15T09:31:24.589Z,97551.78
2022-12-15T09:33:53.401Z,97551.63
2022-12-15T09:36:21.235Z,97547.94
2022-12-15T09:38:48.040Z,97554.63
2022-12-15T09:41:17.270Z,97555.75
2022-12-15T09:44:11.678Z,97547.94
2022-12-15T09:47:05.855Z,97546.03
2022-12-15T09:49:35.319Z,97547.25
2022-12-15T09:52:29.319Z,97548.75
2022-12-15T09:54:58.221Z,97550.28
2022-12-15T09:57:45.977Z,97532.28
2022-12-15T10:00:41.818Z,97524.00
2022-12-15T10:03:32.945Z,97531.69
2022-12-15T10:06:21.476Z,97535.00
2022-12-15T10:08:58.423Z,97529.16
2022-12-15T10:11:45.259Z,97535.75
2022-12-15T10:14:36.022Z,97544.25
2022-12-15T10:17:06.976Z,97540.16
2022-12-15T10:19:41.862Z,97548.41
2022-12-15T10:22:27.143Z,97558.22
2022-12-15T10:25:11.139Z,97553.81
2022-12-15T10:27:53.430Z,97558.72
2022-12-15T10:30:21.791Z,97557.88
2022-12-15T10:33:25.323Z,97561.03
2022-12-15T10:35:55.500Z,97561.22
2022-12-15T10:38:38.225Z,97556.91
2022-12-15T10:41:08.270Z,97550.84
2022-12-15T10:43:38.216Z,97539.06
2022-12-15T10:46:21.985Z,97539.13
2022-12-15T10:48:56.441Z,97534.97
2022-12-15T10:51:37.060Z,97532.38
2022-12-15T10:54:13.276Z,97528.13
2022-12-15T10:56:52.983Z,97536.41
2022-12-15T10:59:25.876Z,97536.09
2022-12-15T11:01:53.360Z,97530.28
2022-12-15T11:04:30.667Z,97553.78
2022-12-15T11:06:59.708Z,97544.50
2022-12-15T11:09:38.534Z,97557.91
2022-12-15T11:12:38.472Z,97560.44
2022-12-15T11:15:23.510Z,97551.78
2022-12-15T11:18:11.210Z,97540.97
2022-12-15T11:20:42.338Z,97545.44
2022-12-15T11:23:21.711Z,97545.13
2022-12-15T11:26:13.700Z,97535.31
2022-12-15T11:28:50.894Z,97528.72
2022-12-15T11:31:29.541Z,97522.88
2022-12-15T11:33:56.258Z,97509.78
2022-12-15T11:36:22.998Z,97521.47
2022-12-15T11:38:59.384Z,97517.06
2022-12-15T11:42:17.521Z,97524.94
2022-12-15T11:45:04.549Z,97524.88
2022-12-15T11:47:34.053Z,97530.88
2022-12-15T11:50:17.311Z,97523.44
2022-12-15T11:53:21.354Z,97527.59
2022-12-15T11:56:02.157Z,97520.81
2022-12-15T11:58:56.212Z,97523.25
2022-12-15T12:01:28.948Z,97524.22
2022-12-15T12:04:20.573Z,97515.03
2022-12-15T12:07:23.484Z,97497.06
2022-12-15T12:10:29.110Z,97492.13
2022-12-15T12:12:58.600Z,97487.88
2022-12-15T12:15:35.396Z,97481.41
2022-12-15T12:18:11.879Z,97462.06
2022-12-15T12:20:55.701Z,97444.34
2022-12-15T12:23:30.181Z,97433.25
2022-12-15T12:26:19.345Z,97426.13
2022-12-15T12:28:48.883Z,97416.66
2022-12-15T12:31:41.595Z,97412.00
2022-12-15T12:34:20.268Z,97396.84
2022-12-15T12:36:49.152Z,97387.41
2022-12-15T12:39:22.670Z,97366.88
2022-12-15T12:42:15.094Z,97363.38
2022-12-15T12:44:41.834Z,97362.47
2022-12-15T12:47:26.249Z,97367.47
2022-12-15T12:50:39.486Z,97360.47
2022-12-15T12:53:06.247Z,97353.75
2022-12-15T12:55:32.801Z,97345.59
2022-12-15T12:57:59.501Z,97341.34
2022-12-15T13:00:28.592Z,97342.22
2022-12-15T13:03:19.890Z,97339.69
2022-12-15T13:08:51.741Z,97340.63
2022-12-15T13:11:51.069Z,97350.00
2022-12-15T13:14:29.957Z,97357.28
2022-12-15T13:17:25.545Z,97360.84
2022-12-15T13:19:58.568Z,97363.47
2022-12-15T13:22:43.775Z,97365.47
2022-12-15T13:25:37.525Z,97363.78
2022-12-15T13:28:18.324Z,97378.00
2022-12-15T13:31:16.644Z,97365.22
2022-12-15T13:33:49.247Z,97372.78
2022-12-15T13:36:37.789Z,97376.19
2022-12-15T13:39:27.388Z,97385.50
2022-12-15T13:42:31.516Z,97388.84
2022-12-15T13:44:48.807Z,97391.94
2022-12-15T13:47:22.165Z,97390.34
2022-12-15T13:50:02.309Z,97394.13
2022-12-15T13:53:08.663Z,97403.41
2022-12-15T13:55:31.463Z,97405.22
2022-12-15T13:58:05.329Z,97392.59
2022-12-15T14:00:32.797Z,97405.16
2022-12-15T14:03:07.246Z,97407.81
2022-12-15T14:05:33.998Z,97410.81
2022-12-15T14:08:02.936Z,97423.41
2022-12-15T14:10:44.493Z,97416.28
2022-12-15T14:13:34.086Z,97421.34
2022-12-15T14:16:22.483Z,97428.31
2022-12-15T14:19:15.617Z,97426.72
2022-12-15T14:21:52.949Z,97433.38
2022-12-15T14:24:39.872Z,97429.13
2022-12-15T14:27:07.576Z,97435.84
2022-12-15T14:29:34.429Z,97435.72
2022-12-15T14:32:01.381Z,97423.81
2022-12-15T14:34:33.235Z,97432.19
2022-12-15T14:37:03.435Z,97429.72
2022-12-15T14:39:39.547Z,97433.94
2022-12-15T14:42:07.937Z,97439.06
2022-12-15T14:44:41.137Z,97438.38
2022-12-15T14:47:33.762Z,97441.03
2022-12-15T14:50:02.553Z,97448.72
2022-12-15T14:52:39.095Z,97441.19
2022-12-15T14:55:20.914Z,97448.09
2022-12-15T14:57:48.319Z,97451.50
2022-12-15T15:00:28.398Z,97440.69
2022-12-15T15:03:12.903Z,97345.75
2022-12-15T15:06:01.159Z,97438.16
2022-12-15T15:08:32.233Z,97440.03
2022-12-15T15:11:03.666Z,97433.16
2022-12-15T15:13:40.657Z,97432.25
2022-12-15T15:16:15.685Z,97432.13
2022-12-15T15:18:43.383Z,97430.75
2022-12-15T15:21:23.213Z,97421.63
2022-12-15T15:24:09.446Z,97424.16
2022-12-15T15:26:36.355Z,97428.22
2022-12-15T15:29:03.870Z,97419.22
2022-12-15T15:31:41.504Z,97410.81
2022-12-15T15:34:08.886Z,97413.63
2022-12-15T15:36:38.272Z,97407.81
2022-12-15T15:39:15.167Z,97393.94
2022-12-15T15:41:42.676Z,97398.97
2022-12-15T15:44:14.549Z,97397.53
2022-12-15T15:47:00.229Z,97388.50
2022-12-15T15:49:27.357Z,97382.69
2022-12-15T15:51:56.054Z,97372.63
2022-12-15T15:54:27.613Z,97367.53
2022-12-15T15:56:54.292Z,97360.75
2022-12-15T15:59:22.864Z,97370.22
2022-12-15T16:01:59.219Z,97359.16
2022-12-15T16:04:27.033Z,97353.22
2022-12-15T16:06:54.022Z,97351.56
2022-12-15T16:09:21.154Z,97339.97
2022-12-15T16:11:47.854Z,97338.09
2022-12-15T16:14:17.099Z,97341.56
2022-12-15T16:16:44.728Z,97339.75
2022-12-15T16:19:14.310Z,97340.38
2022-12-15T16:21:42.599Z,97337.66
2022-12-15T16:24:13.770Z,97342.75
2022-12-15T16:26:47.307Z,97340.19
2022-12-15T16:29:16.127Z,97336.09
2022-12-15T16:31:45.632Z,97339.38
2022-12-15T16:34:13.980Z,97324.56
2022-12-15T16:36:41.072Z,97324.47
2022-12-15T16:39:30.810Z,97316.94
2022-12-15T16:41:58.228Z,97311.69
2022-12-15T16:44:26.539Z,97307.28
2022-12-15T16:46:53.342Z,97294.56
2022-12-15T16:49:20.391Z,97263.94
2022-12-15T16:51:50.432Z,97282.56
2022-12-15T16:54:20.996Z,97277.47
2022-12-15T16:56:48.755Z,97280.06
2022-12-15T16:59:38.647Z,97270.63
2022-12-15T17:02:28.432Z,97269.28
2022-12-15T17:04:55.614Z,97269.13
2022-12-15T17:07:24.093Z,97255.81
2022-12-15T17:09:51.298Z,97277.59
2022-12-15T17:12:18.797Z,97270.13
2022-12-15T17:14:46.194Z,97281.78
2022-12-15T17:17:18.214Z,97268.41
2022-12-15T17:20:11.748Z,97264.44
2022-12-15T17:22:33.251Z,97267.59
2022-12-15T17:25:00.051Z,97272.78
2022-12-15T17:27:29.412Z,97267.84
2022-12-15T17:29:59.522Z,97263.03
2022-12-15T17:32:26.750Z,97271.41
2022-12-15T17:34:53.462Z,97270.50
2022-12-15T17:37:20.170Z,97262.78
2022-12-15T17:39:51.245Z,97260.38
2022-12-15T17:42:20.547Z,97259.50
2022-12-15T17:44:48.620Z,97253.72
2022-12-15T17:47:16.607Z,97251.09
2022-12-15T17:49:43.826Z,97250.19
2022-12-15T17:52:26.230Z,97250.19
2022-12-15T17:54:53.504Z,97242.91
2022-12-15T17:57:20.270Z,97244.50
2022-12-15T17:59:47.298Z,97246.09
2022-12-15T18:02:14.486Z,97247.78
2022-12-15T18:04:42.172Z,97245.19
2022-12-15T18:07:21.493Z,97246.09
2022-12-15T18:09:50.090Z,97240.19
2022-12-15T18:12:26.188Z,97245.06
2022-12-15T18:14:54.362Z,97246.72
2022-12-15T18:17:21.416Z,97230.91
2022-12-15T18:19:48.780Z,97239.06
2022-12-15T18:22:23.757Z,97238.19
2022-12-15T18:24:52.894Z,97234.13
2022-12-15T18:27:28.180Z,97238.38
2022-12-15T18:29:56.492Z,97240.97
2022-12-15T18:32:25.837Z,97229.25
2022-12-15T18:34:53.482Z,97236.66
2022-12-15T18:37:23.061Z,97244.19
2022-12-15T18:39:50.705Z,97236.72
2022-12-15T18:42:20.453Z,97236.00
2022-12-15T18:44:50.288Z,97241.19
2022-12-15T18:47:18.893Z,97223.72
2022-12-15T18:49:45.860Z,97225.94
2022-12-15T18:52:23.847Z,97214.94
2022-12-15T18:54:53.223Z,97213.13
2022-12-15T18:57:28.752Z,97205.63
2022-12-15T18:59:59.551Z,97200.63
2022-12-15T19:02:26.239Z,97184.72
2022-12-15T19:04:53.043Z,97184.66
2022-12-15T19:07:19.776Z,97182.84
2022-12-15T19:09:46.530Z,97174.41
2022-12-15T19:12:18.733Z,97177.81
2022-12-15T19:14:47.454Z,97173.38
2022-12-15T19:17:37.968Z,97170.09
2022-12-15T19:20:30.612Z,97169.50
2022-12-15T19:22:57.260Z,97173.69
2022-12-15T19:25:30.628Z,97173.63
2022-12-15T19:27:59.812Z,97180.84
2022-12-15T19:30:36.977Z,97176.25
2022-12-15T19:33:09.219Z,97153.00
2022-12-15T19:35:36.995Z,97176.22
2022-12-15T19:38:04.906Z,97171.88
2022-12-15T19:40:34.458Z,97161.91
2022-12-15T19:43:04.204Z,97164.91
2022-12-15T19:45:32.270Z,97162.44
2022-12-15T19:47:59.122Z,97153.69
2022-12-15T19:50:30.438Z,97159.41
2022-12-15T19:53:00.238Z,97157.88
2022-12-15T19:55:30.066Z,97156.56
2022-12-15T19:57:56.720Z,97158.50
2022-12-15T20:00:24.848Z,97159.38
2022-12-15T20:02:54.682Z,97160.16
2022-12-15T20:05:24.036Z,97155.97
2022-12-15T20:07:53.672Z,97156.78
2022-12-15T20:10:31.269Z,97162.38
2022-12-15T20:12:59.023Z,97152.19
2022-12-15T20:15:26.339Z,97150.44
2022-12-15T20:17:59.013Z,97162.63
2022-12-15T20:20:27.954Z,97147.13
2022-12-15T20:22:58.846Z,97157.75
2022-12-15T20:25:28.599Z,97120.81
2022-12-15T20:27:56.322Z,97139.53
2022-12-15T20:30:26.871Z,97140.72
2022-12-15T20:32:53.850Z,97140.44
2022-12-15T20:35:22.458Z,97135.25
2022-12-15T20:37:50.316Z,97129.34
2022-12-15T20:40:20.716Z,97127.78
2022-12-15T20:42:48.143Z,97123.59
2022-12-15T20:45:16.648Z,97115.13
2022-12-15T20:47:46.176Z,97118.41
2022-12-15T20:50:31.747Z,97117.66
2022-12-15T20:52:58.549Z,97117.59
2022-12-15T20:55:25.351Z,97121.06
2022-12-15T20:57:52.307Z,97101.97
2022-12-15T21:00:19.489Z,97109.88
2022-12-15T21:02:46.901Z,97127.72
2022-12-15T21:05:19.849Z,97121.22
2022-12-15T21:07:47.263Z,97117.75
2022-12-15T21:10:16.045Z,97119.13
2022-12-15T21:12:45.551Z,97119.81
2022-12-15T21:15:15.202Z,97124.63
2022-12-15T21:17:42.828Z,97117.41
2022-12-15T21:20:11.755Z,97123.94
2022-12-15T21:22:38.945Z,97124.09
2022-12-15T21:25:16.598Z,97120.03
2022-12-15T21:27:43.339Z,97129.22
2022-12-15T21:30:20.542Z,97130.94
2022-12-15T21:32:48.891Z,97128.16
2022-12-15T21:35:17.347Z,97138.09
2022-12-15T21:37:47.248Z,97136.00
2022-12-15T21:40:22.018Z,97129.56
2022-12-15T21:42:50.023Z,97113.00
2022-12-15T21:45:22.393Z,97117.66
2022-12-15T21:48:09.752Z,97118.66
2022-12-15T21:50:37.955Z,97129.41
2022-12-15T21:53:06.365Z,97131.88
2022-12-15T21:55:33.555Z,97120.38
2022-12-15T21:58:00.165Z,97122.84
2022-12-15T22:00:26.968Z,97120.50
2022-12-15T22:02:54.496Z,97114.50
2022-12-15T22:05:30.249Z,97108.47
2022-12-15T22:08:15.658Z,97112.22
2022-12-15T22:10:42.984Z,97103.34
2022-12-15T22:13:14.802Z,97113.28
2022-12-15T22:15:41.506Z,97093.28
2022-12-15T22:18:12.015Z,97103.16
2022-12-15T22:20:39.248Z,97092.19
2022-12-15T22:23:06.108Z,97102.22
2022-12-15T22:25:32.720Z,97104.69
2022-12-15T22:27:59.347Z,97084.00
2022-12-15T22:30:27.158Z,97103.69
2022-12-15T22:32:54.204Z,97110.50
2022-12-15T22:35:25.949Z,97097.97
2022-12-15T22:37:53.969Z,97103.66
2022-12-15T22:40:22.957Z,97102.81
2022-12-15T22:42:53.549Z,97097.03
2022-12-15T22:45:24.007Z,97092.03
2022-12-15T22:47:52.408Z,97093.66
2022-12-15T22:50:23.532Z,97088.59
2022-12-15T22:52:50.696Z,97084.38
2022-12-15T22:55:20.860Z,97085.09
2022-12-15T22:57:56.719Z,97080.75
2022-12-15T23:00:23.436Z,97083.28
2022-12-15T23:02:51.024Z,97079.22
2022-12-15T23:05:20.203Z,97086.91
2022-12-15T23:07:47.063Z,97076.00
2022-12-15T23:10:39.233Z,97075.06
2022-12-15T23:13:06.490Z,97077.59
2022-12-15T23:15:52.173Z,97069.09
2022-12-15T23:18:19.171Z,97081.25
2022-12-15T23:20:45.769Z,97075.97
2022-12-15T23:23:12.766Z,97076.09
2022-12-15T23:25:39.439Z,97072.81
2022-12-15T23:28:06.149Z,97071.28
2022-12-15T23:30:32.835Z,97065.28
2022-12-15T23:32:59.842Z,97059.56
2022-12-15T23:35:26.781Z,97067.00
2022-12-15T23:37:53.484Z,97064.63
2022-12-15T23:40:22.229Z,97061.44
2022-12-15T23:42:50.512Z,97065.00
2022-12-15T23:45:18.162Z,97062.31
2022-12-15T23:47:45.101Z,97059.06
2022-12-15T23:50:11.795Z,97059.78
2022-12-15T23:52:38.835Z,97059.06
2022-12-15T23:55:09.912Z,97055.88
2022-12-15T23:57:38.063Z,97057.13
